Terminal Aerodrome Forecast
Issued by NWS

Home | Current Version | Previous Version | Text Only | Print | Product List | Glossary On
Versions: 1 2 3 4 5 6 7 8 9 10 11 12 13
599
FTUS45 KGGW 171120
TAFSDY
TAF
KSDY 171120Z 1712/1812 VRB03KT P6SM SCT045
     FM172100 27006KT P6SM SCT200
     FM180500 30008KT P6SM SCT050=

USA.gov is the U.S. government's official web portal to all federal, state and local government web resources and services.